sensor_id;sensor_type;location;lat;lon;timestamp;P1;durP1;ratioP1;P2;durP2;ratioP2
11711;SDS011;5912;51.034;6.984;2024-03-23T00:51:12;14.35;;;5.95;;
11711;SDS011;5912;51.034;6.984;2024-03-23T00:53:37;12.98;;;5.95;;
11711;SDS011;5912;51.034;6.984;2024-03-23T00:56:03;16.77;;;6.38;;
11711;SDS011;5912;51.034;6.984;2024-03-23T00:58:29;18.55;;;6.63;;
11711;SDS011;5912;51.034;6.984;2024-03-23T01:00:55;16.50;;;6.78;;
11711;SDS011;5912;51.034;6.984;2024-03-23T01:03:20;13.32;;;6.50;;
11711;SDS011;5912;51.034;6.984;2024-03-23T01:05:46;13.35;;;5.22;;
11711;SDS011;5912;51.034;6.984;2024-03-23T01:08:11;7.22;;;3.70;;
11711;SDS011;5912;51.034;6.984;2024-03-23T01:10:36;7.60;;;3.17;;
11711;SDS011;5912;51.034;6.984;2024-03-23T01:13:01;8.38;;;3.35;;
11711;SDS011;5912;51.034;6.984;2024-03-23T01:15:27;6.68;;;2.97;;
11711;SDS011;5912;51.034;6.984;2024-03-23T01:17:52;6.75;;;2.78;;
11711;SDS011;5912;51.034;6.984;2024-03-23T01:20:18;7.43;;;3.20;;
11711;SDS011;5912;51.034;6.984;2024-03-23T01:22:43;8.98;;;2.80;;
11711;SDS011;5912;51.034;6.984;2024-03-23T01:25:08;10.17;;;2.90;;
11711;SDS011;5912;51.034;6.984;2024-03-23T01:27:34;7.37;;;2.63;;
11711;SDS011;5912;51.034;6.984;2024-03-23T01:29:59;5.57;;;2.10;;
11711;SDS011;5912;51.034;6.984;2024-03-23T01:32:24;6.45;;;2.50;;
11711;SDS011;5912;51.034;6.984;2024-03-23T01:34:50;4.73;;;2.00;;
11711;SDS011;5912;51.034;6.984;2024-03-23T01:37:15;5.00;;;2.20;;
11711;SDS011;5912;51.034;6.984;2024-03-23T01:39:40;5.93;;;2.08;;
11711;SDS011;5912;51.034;6.984;2024-03-23T01:42:06;5.85;;;1.90;;
11711;SDS011;5912;51.034;6.984;2024-03-23T01:44:40;5.87;;;2.20;;
11711;SDS011;5912;51.034;6.984;2024-03-23T01:47:06;5.77;;;1.97;;
11711;SDS011;5912;51.034;6.984;2024-03-23T01:49:32;5.93;;;1.73;;
11711;SDS011;5912;51.034;6.984;2024-03-23T01:51:58;8.80;;;2.33;;
11711;SDS011;5912;51.034;6.984;2024-03-23T01:54:24;4.93;;;1.90;;
11711;SDS011;5912;51.034;6.984;2024-03-23T01:56:50;3.20;;;1.93;;
11711;SDS011;5912;51.034;6.984;2024-03-23T01:59:16;8.90;;;2.37;;
11711;SDS011;5912;51.034;6.984;2024-03-23T02:01:41;4.47;;;1.90;;
11711;SDS011;5912;51.034;6.984;2024-03-23T02:04:06;6.77;;;2.07;;
11711;SDS011;5912;51.034;6.984;2024-03-23T02:06:32;7.07;;;2.00;;
11711;SDS011;5912;51.034;6.984;2024-03-23T02:08:58;7.45;;;2.20;;
11711;SDS011;5912;51.034;6.984;2024-03-23T02:11:23;6.63;;;1.87;;
11711;SDS011;5912;51.034;6.984;2024-03-23T02:13:48;6.70;;;1.85;;
11711;SDS011;5912;51.034;6.984;2024-03-23T02:16:14;6.00;;;2.03;;
11711;SDS011;5912;51.034;6.984;2024-03-23T02:18:39;7.97;;;2.00;;
11711;SDS011;5912;51.034;6.984;2024-03-23T02:24:14;7.23;;;2.40;;
11711;SDS011;5912;51.034;6.984;2024-03-23T02:26:39;6.37;;;2.60;;
11711;SDS011;5912;51.034;6.984;2024-03-23T02:29:04;4.82;;;2.10;;
11711;SDS011;5912;51.034;6.984;2024-03-23T02:31:29;8.55;;;3.08;;
11711;SDS011;5912;51.034;6.984;2024-03-23T02:33:55;7.47;;;3.00;;
11711;SDS011;5912;51.034;6.984;2024-03-23T02:36:20;5.57;;;2.47;;
11711;SDS011;5912;51.034;6.984;2024-03-23T02:38:46;6.20;;;2.33;;
11711;SDS011;5912;51.034;6.984;2024-03-23T02:41:11;5.67;;;2.53;;
11711;SDS011;5912;51.034;6.984;2024-03-23T02:43:37;5.70;;;2.33;;
11711;SDS011;5912;51.034;6.984;2024-03-23T02:46:02;6.43;;;2.30;;
11711;SDS011;5912;51.034;6.984;2024-03-23T02:48:29;4.67;;;1.77;;
11711;SDS011;5912;51.034;6.984;2024-03-23T02:50:54;5.00;;;2.33;;
11711;SDS011;5912;51.034;6.984;2024-03-23T02:53:19;4.10;;;1.60;;
11711;SDS011;5912;51.034;6.984;2024-03-23T02:55:45;9.10;;;2.03;;
11711;SDS011;5912;51.034;6.984;2024-03-23T02:58:10;3.67;;;1.87;;
11711;SDS011;5912;51.034;6.984;2024-03-23T03:00:36;7.63;;;1.93;;
11711;SDS011;5912;51.034;6.984;2024-03-23T03:03:01;7.03;;;2.20;;
11711;SDS011;5912;51.034;6.984;2024-03-23T03:05:28;8.82;;;2.20;;
11711;SDS011;5912;51.034;6.984;2024-03-23T03:07:53;5.57;;;2.00;;
11711;SDS011;5912;51.034;6.984;2024-03-23T03:10:19;10.37;;;2.40;;
11711;SDS011;5912;51.034;6.984;2024-03-23T03:12:44;4.20;;;1.80;;
11711;SDS011;5912;51.034;6.984;2024-03-23T03:15:09;5.10;;;1.80;;
11711;SDS011;5912;51.034;6.984;2024-03-23T03:17:35;4.67;;;2.17;;
11711;SDS011;5912;51.034;6.984;2024-03-23T03:20:00;4.90;;;1.90;;
11711;SDS011;5912;51.034;6.984;2024-03-23T03:22:25;9.10;;;1.60;;
11711;SDS011;5912;51.034;6.984;2024-03-23T03:24:51;4.40;;;1.77;;
11711;SDS011;5912;51.034;6.984;2024-03-23T03:27:16;7.13;;;1.90;;
11711;SDS011;5912;51.034;6.984;2024-03-23T03:29:41;5.20;;;1.73;;
11711;SDS011;5912;51.034;6.984;2024-03-23T03:32:07;5.10;;;2.00;;
11711;SDS011;5912;51.034;6.984;2024-03-23T03:34:32;6.20;;;1.60;;
11711;SDS011;5912;51.034;6.984;2024-03-23T03:36:57;5.73;;;1.73;;
11711;SDS011;5912;51.034;6.984;2024-03-23T03:39:23;5.13;;;1.60;;
11711;SDS011;5912;51.034;6.984;2024-03-23T03:41:49;5.30;;;1.97;;
11711;SDS011;5912;51.034;6.984;2024-03-23T03:44:14;3.67;;;1.60;;
11711;SDS011;5912;51.034;6.984;2024-03-23T03:46:40;7.50;;;1.93;;
11711;SDS011;5912;51.034;6.984;2024-03-23T03:49:05;5.83;;;1.80;;
11711;SDS011;5912;51.034;6.984;2024-03-23T03:51:30;4.43;;;1.80;;
11711;SDS011;5912;51.034;6.984;2024-03-23T03:53:56;9.13;;;2.23;;
11711;SDS011;5912;51.034;6.984;2024-03-23T03:56:21;8.30;;;2.60;;
11711;SDS011;5912;51.034;6.984;2024-03-23T03:58:47;7.33;;;2.63;;
11711;SDS011;5912;51.034;6.984;2024-03-23T04:01:13;5.97;;;2.00;;
11711;SDS011;5912;51.034;6.984;2024-03-23T04:03:43;7.72;;;2.40;;
11711;SDS011;5912;51.034;6.984;2024-03-23T04:06:11;5.33;;;2.07;;
11711;SDS011;5912;51.034;6.984;2024-03-23T04:08:37;4.33;;;1.87;;
11711;SDS011;5912;51.034;6.984;2024-03-23T04:11:02;8.60;;;2.00;;
11711;SDS011;5912;51.034;6.984;2024-03-23T04:13:28;6.33;;;2.20;;
11711;SDS011;5912;51.034;6.984;2024-03-23T04:15:54;5.30;;;1.80;;
11711;SDS011;5912;51.034;6.984;2024-03-23T04:18:20;6.00;;;2.10;;
11711;SDS011;5912;51.034;6.984;2024-03-23T04:20:46;6.37;;;2.37;;
11711;SDS011;5912;51.034;6.984;2024-03-23T04:23:11;8.27;;;2.10;;
11711;SDS011;5912;51.034;6.984;2024-03-23T04:25:37;8.53;;;2.07;;
11711;SDS011;5912;51.034;6.984;2024-03-23T04:28:02;4.37;;;1.70;;
11711;SDS011;5912;51.034;6.984;2024-03-23T04:30:27;4.43;;;1.73;;
11711;SDS011;5912;51.034;6.984;2024-03-23T04:32:54;5.50;;;1.80;;
11711;SDS011;5912;51.034;6.984;2024-03-23T04:35:19;6.73;;;1.70;;
11711;SDS011;5912;51.034;6.984;2024-03-23T04:37:47;6.90;;;2.20;;
11711;SDS011;5912;51.034;6.984;2024-03-23T04:40:12;12.33;;;2.27;;
11711;SDS011;5912;51.034;6.984;2024-03-23T04:42:37;5.10;;;1.90;;
11711;SDS011;5912;51.034;6.984;2024-03-23T04:45:03;5.03;;;1.87;;
11711;SDS011;5912;51.034;6.984;2024-03-23T04:47:31;8.10;;;2.17;;
11711;SDS011;5912;51.034;6.984;2024-03-23T04:49:56;8.37;;;1.77;;
11711;SDS011;5912;51.034;6.984;2024-03-23T04:52:21;4.00;;;1.60;;
11711;SDS011;5912;51.034;6.984;2024-03-23T04:54:47;8.87;;;1.77;;
11711;SDS011;5912;51.034;6.984;2024-03-23T04:57:12;4.87;;;1.77;;
11711;SDS011;5912;51.034;6.984;2024-03-23T04:59:38;10.87;;;1.63;;
11711;SDS011;5912;51.034;6.984;2024-03-23T05:02:03;4.57;;;1.30;;
11711;SDS011;5912;51.034;6.984;2024-03-23T05:04:28;6.93;;;1.90;;
11711;SDS011;5912;51.034;6.984;2024-03-23T05:06:54;7.60;;;2.00;;
11711;SDS011;5912;51.034;6.984;2024-03-23T05:09:19;5.87;;;2.03;;
11711;SDS011;5912;51.034;6.984;2024-03-23T05:11:45;7.93;;;2.07;;
11711;SDS011;5912;51.034;6.984;2024-03-23T05:14:12;4.30;;;2.10;;
11711;SDS011;5912;51.034;6.984;2024-03-23T05:16:38;8.83;;;1.60;;
11711;SDS011;5912;51.034;6.984;2024-03-23T05:19:04;5.03;;;1.63;;
11711;SDS011;5912;51.034;6.984;2024-03-23T05:21:29;6.23;;;1.97;;
11711;SDS011;5912;51.034;6.984;2024-03-23T05:23:54;5.40;;;1.67;;
11711;SDS011;5912;51.034;6.984;2024-03-23T05:26:21;7.67;;;2.00;;
11711;SDS011;5912;51.034;6.984;2024-03-23T05:28:47;7.47;;;2.40;;
11711;SDS011;5912;51.034;6.984;2024-03-23T05:31:13;5.97;;;2.00;;
11711;SDS011;5912;51.034;6.984;2024-03-23T05:33:48;5.77;;;1.90;;
11711;SDS011;5912;51.034;6.984;2024-03-23T05:36:13;6.70;;;2.07;;
11711;SDS011;5912;51.034;6.984;2024-03-23T05:38:38;7.70;;;2.10;;
11711;SDS011;5912;51.034;6.984;2024-03-23T05:41:03;7.77;;;2.50;;
11711;SDS011;5912;51.034;6.984;2024-03-23T05:43:29;7.30;;;2.70;;
11711;SDS011;5912;51.034;6.984;2024-03-23T05:45:55;5.23;;;2.30;;
11711;SDS011;5912;51.034;6.984;2024-03-23T05:48:21;5.67;;;2.63;;
11711;SDS011;5912;51.034;6.984;2024-03-23T05:50:46;11.40;;;2.60;;
11711;SDS011;5912;51.034;6.984;2024-03-23T05:53:12;9.67;;;2.60;;
11711;SDS011;5912;51.034;6.984;2024-03-23T05:55:38;6.77;;;2.30;;
11711;SDS011;5912;51.034;6.984;2024-03-23T05:58:03;8.07;;;2.53;;
11711;SDS011;5912;51.034;6.984;2024-03-23T06:00:28;9.63;;;2.70;;
11711;SDS011;5912;51.034;6.984;2024-03-23T06:02:54;10.10;;;2.80;;
11711;SDS011;5912;51.034;6.984;2024-03-23T06:05:19;6.47;;;2.00;;
11711;SDS011;5912;51.034;6.984;2024-03-23T06:07:44;8.20;;;2.40;;
11711;SDS011;5912;51.034;6.984;2024-03-23T06:10:10;10.73;;;2.80;;
11711;SDS011;5912;51.034;6.984;2024-03-23T06:12:35;8.23;;;2.50;;
11711;SDS011;5912;51.034;6.984;2024-03-23T06:15:00;6.60;;;2.50;;
11711;SDS011;5912;51.034;6.984;2024-03-23T06:17:26;7.67;;;2.60;;
11711;SDS011;5912;51.034;6.984;2024-03-23T06:19:52;11.63;;;2.87;;
11711;SDS011;5912;51.034;6.984;2024-03-23T06:22:17;9.30;;;3.17;;
11711;SDS011;5912;51.034;6.984;2024-03-23T06:24:42;10.67;;;2.83;;
11711;SDS011;5912;51.034;6.984;2024-03-23T06:27:08;7.30;;;2.70;;
11711;SDS011;5912;51.034;6.984;2024-03-23T06:29:33;9.80;;;2.77;;
11711;SDS011;5912;51.034;6.984;2024-03-23T06:34:55;5.63;;;1.90;;
11711;SDS011;5912;51.034;6.984;2024-03-23T06:37:20;9.63;;;2.83;;
11711;SDS011;5912;51.034;6.984;2024-03-23T06:39:45;8.67;;;2.43;;
11711;SDS011;5912;51.034;6.984;2024-03-23T06:42:11;5.97;;;2.63;;
11711;SDS011;5912;51.034;6.984;2024-03-23T06:44:36;10.80;;;3.07;;
11711;SDS011;5912;51.034;6.984;2024-03-23T06:47:01;7.13;;;2.63;;
11711;SDS011;5912;51.034;6.984;2024-03-23T06:49:27;6.97;;;3.00;;
11711;SDS011;5912;51.034;6.984;2024-03-23T06:51:53;8.80;;;2.30;;
11711;SDS011;5912;51.034;6.984;2024-03-23T06:54:19;6.97;;;2.13;;
11711;SDS011;5912;51.034;6.984;2024-03-23T06:56:44;8.17;;;2.53;;
11711;SDS011;5912;51.034;6.984;2024-03-23T06:59:10;8.10;;;2.43;;
11711;SDS011;5912;51.034;6.984;2024-03-23T07:01:35;8.07;;;2.23;;
11711;SDS011;5912;51.034;6.984;2024-03-23T07:04:00;7.67;;;2.50;;
11711;SDS011;5912;51.034;6.984;2024-03-23T07:06:26;7.80;;;2.47;;
11711;SDS011;5912;51.034;6.984;2024-03-23T07:08:52;10.97;;;3.13;;
11711;SDS011;5912;51.034;6.984;2024-03-23T07:11:18;7.97;;;2.53;;
11711;SDS011;5912;51.034;6.984;2024-03-23T07:13:45;5.37;;;2.73;;
11711;SDS011;5912;51.034;6.984;2024-03-23T07:16:10;7.83;;;2.33;;
11711;SDS011;5912;51.034;6.984;2024-03-23T07:18:36;8.98;;;3.00;;
11711;SDS011;5912;51.034;6.984;2024-03-23T07:21:01;9.57;;;2.83;;
11711;SDS011;5912;51.034;6.984;2024-03-23T07:23:26;6.40;;;2.67;;
11711;SDS011;5912;51.034;6.984;2024-03-23T07:25:58;10.82;;;2.83;;
11711;SDS011;5912;51.034;6.984;2024-03-23T07:28:28;7.07;;;2.75;;
11711;SDS011;5912;51.034;6.984;2024-03-23T07:33:35;7.80;;;2.97;;
11711;SDS011;5912;51.034;6.984;2024-03-23T07:36:10;7.28;;;3.13;;
11711;SDS011;5912;51.034;6.984;2024-03-23T07:38:36;7.32;;;2.90;;
11711;SDS011;5912;51.034;6.984;2024-03-23T07:41:05;11.05;;;3.40;;
11711;SDS011;5912;51.034;6.984;2024-03-23T07:43:31;8.00;;;3.47;;
11711;SDS011;5912;51.034;6.984;2024-03-23T07:45:56;9.95;;;3.40;;
11711;SDS011;5912;51.034;6.984;2024-03-23T07:48:22;11.80;;;3.53;;
11711;SDS011;5912;51.034;6.984;2024-03-23T07:53:29;7.28;;;2.97;;
11711;SDS011;5912;51.034;6.984;2024-03-23T07:56:02;10.00;;;3.70;;
11711;SDS011;5912;51.034;6.984;2024-03-23T07:58:29;7.38;;;3.75;;
11711;SDS011;5912;51.034;6.984;2024-03-23T08:00:55;8.98;;;4.20;;
11711;SDS011;5912;51.034;6.984;2024-03-23T08:03:21;10.50;;;4.40;;
11711;SDS011;5912;51.034;6.984;2024-03-23T08:05:46;9.60;;;4.28;;
11711;SDS011;5912;51.034;6.984;2024-03-23T08:08:12;8.13;;;3.58;;
11711;SDS011;5912;51.034;6.984;2024-03-23T08:10:50;8.73;;;3.90;;
11711;SDS011;5912;51.034;6.984;2024-03-23T08:13:16;9.73;;;3.60;;
11711;SDS011;5912;51.034;6.984;2024-03-23T08:15:42;10.23;;;3.90;;
11711;SDS011;5912;51.034;6.984;2024-03-23T08:18:07;9.40;;;3.53;;
11711;SDS011;5912;51.034;6.984;2024-03-23T08:20:32;8.00;;;3.47;;
11711;SDS011;5912;51.034;6.984;2024-03-23T08:22:58;8.30;;;3.30;;
11711;SDS011;5912;51.034;6.984;2024-03-23T08:25:23;7.72;;;3.53;;
11711;SDS011;5912;51.034;6.984;2024-03-23T08:27:48;10.40;;;3.40;;
11711;SDS011;5912;51.034;6.984;2024-03-23T08:30:34;5.78;;;2.80;;
11711;SDS011;5912;51.034;6.984;2024-03-23T08:33:00;7.90;;;2.95;;
11711;SDS011;5912;51.034;6.984;2024-03-23T08:35:25;7.63;;;2.40;;
11711;SDS011;5912;51.034;6.984;2024-03-23T08:37:50;7.47;;;2.95;;
11711;SDS011;5912;51.034;6.984;2024-03-23T08:40:15;7.63;;;3.40;;
11711;SDS011;5912;51.034;6.984;2024-03-23T08:42:41;5.13;;;2.33;;
11711;SDS011;5912;51.034;6.984;2024-03-23T08:45:06;6.55;;;2.55;;
11711;SDS011;5912;51.034;6.984;2024-03-23T08:47:34;10.88;;;3.10;;
11711;SDS011;5912;51.034;6.984;2024-03-23T08:49:59;6.20;;;2.42;;
11711;SDS011;5912;51.034;6.984;2024-03-23T08:52:25;4.25;;;2.00;;
11711;SDS011;5912;51.034;6.984;2024-03-23T08:54:53;8.82;;;2.17;;
11711;SDS011;5912;51.034;6.984;2024-03-23T08:57:18;8.02;;;2.30;;
11711;SDS011;5912;51.034;6.984;2024-03-23T08:59:44;9.35;;;2.22;;
11711;SDS011;5912;51.034;6.984;2024-03-23T09:02:09;6.10;;;1.90;;
11711;SDS011;5912;51.034;6.984;2024-03-23T09:04:34;7.68;;;2.60;;
11711;SDS011;5912;51.034;6.984;2024-03-23T09:07:00;7.90;;;2.90;;
11711;SDS011;5912;51.034;6.984;2024-03-23T09:09:25;7.72;;;2.78;;
11711;SDS011;5912;51.034;6.984;2024-03-23T09:11:51;7.20;;;2.88;;
11711;SDS011;5912;51.034;6.984;2024-03-23T09:14:16;8.30;;;3.17;;
11711;SDS011;5912;51.034;6.984;2024-03-23T09:16:41;8.73;;;2.83;;
11711;SDS011;5912;51.034;6.984;2024-03-23T09:19:07;7.70;;;2.80;;
11711;SDS011;5912;51.034;6.984;2024-03-23T09:21:32;9.63;;;2.90;;
11711;SDS011;5912;51.034;6.984;2024-03-23T09:23:59;4.55;;;2.53;;
11711;SDS011;5912;51.034;6.984;2024-03-23T09:26:24;9.95;;;2.83;;
11711;SDS011;5912;51.034;6.984;2024-03-23T09:28:49;5.45;;;2.97;;
11711;SDS011;5912;51.034;6.984;2024-03-23T09:31:15;6.55;;;2.50;;
11711;SDS011;5912;51.034;6.984;2024-03-23T09:33:40;7.40;;;2.38;;
11711;SDS011;5912;51.034;6.984;2024-03-23T09:36:06;4.97;;;2.22;;
11711;SDS011;5912;51.034;6.984;2024-03-23T09:38:32;5.35;;;2.35;;
11711;SDS011;5912;51.034;6.984;2024-03-23T09:40:57;6.82;;;2.47;;
11711;SDS011;5912;51.034;6.984;2024-03-23T09:43:23;5.50;;;1.83;;
11711;SDS011;5912;51.034;6.984;2024-03-23T09:45:49;3.15;;;2.20;;
11711;SDS011;5912;51.034;6.984;2024-03-23T09:48:14;7.20;;;2.20;;
11711;SDS011;5912;51.034;6.984;2024-03-23T09:50:40;4.10;;;1.52;;
11711;SDS011;5912;51.034;6.984;2024-03-23T09:53:07;5.25;;;1.85;;
11711;SDS011;5912;51.034;6.984;2024-03-23T09:55:33;5.25;;;1.67;;
11711;SDS011;5912;51.034;6.984;2024-03-23T09:58:00;7.65;;;1.55;;
11711;SDS011;5912;51.034;6.984;2024-03-23T10:00:26;4.60;;;1.80;;
11711;SDS011;5912;51.034;6.984;2024-03-23T10:02:51;4.95;;;1.80;;
11711;SDS011;5912;51.034;6.984;2024-03-23T10:05:20;4.82;;;1.42;;
11711;SDS011;5912;51.034;6.984;2024-03-23T10:07:48;4.57;;;1.60;;
11711;SDS011;5912;51.034;6.984;2024-03-23T10:10:16;7.53;;;1.83;;
11711;SDS011;5912;51.034;6.984;2024-03-23T10:12:45;5.05;;;1.58;;
11711;SDS011;5912;51.034;6.984;2024-03-23T10:15:17;4.38;;;1.50;;
11711;SDS011;5912;51.034;6.984;2024-03-23T10:17:49;5.00;;;1.40;;
11711;SDS011;5912;51.034;6.984;2024-03-23T10:20:22;6.10;;;1.42;;
11711;SDS011;5912;51.034;6.984;2024-03-23T10:22:51;2.53;;;1.10;;
11711;SDS011;5912;51.034;6.984;2024-03-23T10:25:16;3.05;;;1.27;;
11711;SDS011;5912;51.034;6.984;2024-03-23T10:27:42;3.47;;;1.30;;
11711;SDS011;5912;51.034;6.984;2024-03-23T10:32:34;9.27;;;1.25;;
11711;SDS011;5912;51.034;6.984;2024-03-23T10:35:16;2.10;;;1.08;;
11711;SDS011;5912;51.034;6.984;2024-03-23T10:37:48;4.68;;;1.20;;
11711;SDS011;5912;51.034;6.984;2024-03-23T10:40:15;4.50;;;1.20;;
11711;SDS011;5912;51.034;6.984;2024-03-23T10:42:41;1.92;;;1.00;;
11711;SDS011;5912;51.034;6.984;2024-03-23T10:45:06;5.82;;;1.05;;
11711;SDS011;5912;51.034;6.984;2024-03-23T10:47:34;3.75;;;1.20;;
11711;SDS011;5912;51.034;6.984;2024-03-23T10:50:01;3.78;;;0.70;;
11711;SDS011;5912;51.034;6.984;2024-03-23T10:52:26;3.90;;;0.70;;
11711;SDS011;5912;51.034;6.984;2024-03-23T10:54:52;2.88;;;0.73;;
11711;SDS011;5912;51.034;6.984;2024-03-23T10:57:18;3.72;;;0.90;;
11711;SDS011;5912;51.034;6.984;2024-03-23T10:59:48;0.77;;;0.50;;
11711;SDS011;5912;51.034;6.984;2024-03-23T11:02:20;1.00;;;0.50;;
11711;SDS011;5912;51.034;6.984;2024-03-23T11:04:46;1.63;;;0.50;;
11711;SDS011;5912;51.034;6.984;2024-03-23T11:09:48;2.53;;;0.80;;
11711;SDS011;5912;51.034;6.984;2024-03-23T11:14:51;4.55;;;0.80;;
11711;SDS011;5912;51.034;6.984;2024-03-23T11:17:21;4.22;;;0.90;;
11711;SDS011;5912;51.034;6.984;2024-03-23T11:19:57;1.45;;;0.80;;
11711;SDS011;5912;51.034;6.984;2024-03-23T11:25:14;0.40;;;0.40;;
11711;SDS011;5912;51.034;6.984;2024-03-23T11:27:44;1.48;;;0.60;;
11711;SDS011;5912;51.034;6.984;2024-03-23T11:30:14;1.17;;;0.63;;
11711;SDS011;5912;51.034;6.984;2024-03-23T11:32:44;2.17;;;0.63;;
11711;SDS011;5912;51.034;6.984;2024-03-23T11:35:13;1.25;;;0.45;;
11711;SDS011;5912;51.034;6.984;2024-03-23T11:38:01;0.63;;;0.40;;
11711;SDS011;5912;51.034;6.984;2024-03-23T11:40:26;1.17;;;0.57;;
11711;SDS011;5912;51.034;6.984;2024-03-23T11:42:55;0.68;;;0.45;;
11711;SDS011;5912;51.034;6.984;2024-03-23T11:45:21;1.65;;;0.47;;
11711;SDS011;5912;51.034;6.984;2024-03-23T11:47:46;0.55;;;0.35;;
11711;SDS011;5912;51.034;6.984;2024-03-23T11:50:18;1.02;;;0.50;;
11711;SDS011;5912;51.034;6.984;2024-03-23T11:52:44;2.00;;;0.50;;
11711;SDS011;5912;51.034;6.984;2024-03-23T11:55:09;1.35;;;0.55;;
11711;SDS011;5912;51.034;6.984;2024-03-23T11:57:35;1.55;;;0.55;;
11711;SDS011;5912;51.034;6.984;2024-03-23T12:00:00;1.15;;;0.50;;
11711;SDS011;5912;51.034;6.984;2024-03-23T12:02:26;3.67;;;0.73;;
11711;SDS011;5912;51.034;6.984;2024-03-23T12:07:51;1.55;;;0.80;;
11711;SDS011;5912;51.034;6.984;2024-03-23T12:10:18;2.70;;;0.80;;
11711;SDS011;5912;51.034;6.984;2024-03-23T12:12:44;2.88;;;1.10;;
11711;SDS011;5912;51.034;6.984;2024-03-23T12:15:10;3.05;;;0.90;;
11711;SDS011;5912;51.034;6.984;2024-03-23T12:17:37;3.65;;;0.88;;
11711;SDS011;5912;51.034;6.984;2024-03-23T12:20:03;3.47;;;1.00;;
11711;SDS011;5912;51.034;6.984;2024-03-23T12:22:29;3.85;;;0.50;;
11711;SDS011;5912;51.034;6.984;2024-03-23T12:24:55;0.88;;;0.20;;
11711;SDS011;5912;51.034;6.984;2024-03-23T12:27:20;0.93;;;0.40;;
11711;SDS011;5912;51.034;6.984;2024-03-23T12:29:46;0.90;;;0.38;;
11711;SDS011;5912;51.034;6.984;2024-03-23T12:32:14;2.50;;;0.47;;
11711;SDS011;5912;51.034;6.984;2024-03-23T12:34:39;3.15;;;0.40;;
11711;SDS011;5912;51.034;6.984;2024-03-23T12:37:06;0.77;;;0.55;;
11711;SDS011;5912;51.034;6.984;2024-03-23T12:39:31;1.55;;;0.80;;
11711;SDS011;5912;51.034;6.984;2024-03-23T12:41:57;2.08;;;0.82;;
11711;SDS011;5912;51.034;6.984;2024-03-23T12:44:22;0.50;;;0.40;;
11711;SDS011;5912;51.034;6.984;2024-03-23T12:46:47;1.77;;;0.38;;
11711;SDS011;5912;51.034;6.984;2024-03-23T12:49:12;2.08;;;0.40;;
11711;SDS011;5912;51.034;6.984;2024-03-23T12:51:38;1.48;;;0.50;;
11711;SDS011;5912;51.034;6.984;2024-03-23T12:54:03;2.38;;;0.40;;
11711;SDS011;5912;51.034;6.984;2024-03-23T12:56:29;1.55;;;0.50;;
11711;SDS011;5912;51.034;6.984;2024-03-23T12:58:55;1.73;;;0.40;;
11711;SDS011;5912;51.034;6.984;2024-03-23T13:01:22;1.67;;;0.50;;
11711;SDS011;5912;51.034;6.984;2024-03-23T13:03:48;1.77;;;0.43;;
11711;SDS011;5912;51.034;6.984;2024-03-23T13:06:14;2.50;;;0.40;;
11711;SDS011;5912;51.034;6.984;2024-03-23T13:08:40;0.85;;;0.38;;
11711;SDS011;5912;51.034;6.984;2024-03-23T13:11:06;0.98;;;0.50;;
11711;SDS011;5912;51.034;6.984;2024-03-23T13:13:33;1.38;;;0.50;;
11711;SDS011;5912;51.034;6.984;2024-03-23T13:15:59;0.60;;;0.40;;
11711;SDS011;5912;51.034;6.984;2024-03-23T13:18:24;1.77;;;0.70;;
11711;SDS011;5912;51.034;6.984;2024-03-23T13:20:50;1.27;;;0.63;;
11711;SDS011;5912;51.034;6.984;2024-03-23T13:23:15;1.45;;;0.47;;
11711;SDS011;5912;51.034;6.984;2024-03-23T13:25:40;1.75;;;0.80;;
11711;SDS011;5912;51.034;6.984;2024-03-23T13:28:06;4.25;;;0.93;;
11711;SDS011;5912;51.034;6.984;2024-03-23T13:30:31;2.05;;;0.90;;
11711;SDS011;5912;51.034;6.984;2024-03-23T13:32:56;2.75;;;0.80;;
11711;SDS011;5912;51.034;6.984;2024-03-23T13:35:22;2.85;;;0.82;;
11711;SDS011;5912;51.034;6.984;2024-03-23T13:37:47;2.50;;;1.10;;
11711;SDS011;5912;51.034;6.984;2024-03-23T13:40:13;3.35;;;1.40;;
11711;SDS011;5912;51.034;6.984;2024-03-23T13:42:39;2.70;;;1.20;;
11711;SDS011;5912;51.034;6.984;2024-03-23T13:45:04;2.28;;;0.93;;
11711;SDS011;5912;51.034;6.984;2024-03-23T13:47:30;2.55;;;1.10;;
11711;SDS011;5912;51.034;6.984;2024-03-23T13:49:55;2.70;;;1.10;;
11711;SDS011;5912;51.034;6.984;2024-03-23T13:52:21;3.13;;;1.30;;
11711;SDS011;5912;51.034;6.984;2024-03-23T13:54:49;3.03;;;1.20;;
11711;SDS011;5912;51.034;6.984;2024-03-23T13:57:15;3.42;;;1.30;;
11711;SDS011;5912;51.034;6.984;2024-03-23T13:59:40;2.88;;;1.60;;
11711;SDS011;5912;51.034;6.984;2024-03-23T14:02:05;3.97;;;1.10;;
11711;SDS011;5912;51.034;6.984;2024-03-23T14:04:30;3.15;;;0.80;;
11711;SDS011;5912;51.034;6.984;2024-03-23T14:06:56;2.40;;;0.88;;
11711;SDS011;5912;51.034;6.984;2024-03-23T14:09:21;3.20;;;0.73;;
11711;SDS011;5912;51.034;6.984;2024-03-23T14:11:50;1.60;;;0.47;;
11711;SDS011;5912;51.034;6.984;2024-03-23T14:14:16;2.00;;;0.60;;
11711;SDS011;5912;51.034;6.984;2024-03-23T14:16:42;1.35;;;0.60;;
11711;SDS011;5912;51.034;6.984;2024-03-23T14:19:10;3.40;;;0.63;;
11711;SDS011;5912;51.034;6.984;2024-03-23T14:21:35;1.38;;;0.80;;
11711;SDS011;5912;51.034;6.984;2024-03-23T14:24:00;1.17;;;0.65;;
11711;SDS011;5912;51.034;6.984;2024-03-23T14:26:26;2.30;;;0.75;;
11711;SDS011;5912;51.034;6.984;2024-03-23T14:28:52;1.58;;;0.90;;
11711;SDS011;5912;51.034;6.984;2024-03-23T14:31:17;2.63;;;0.80;;
11711;SDS011;5912;51.034;6.984;2024-03-23T14:33:43;0.98;;;0.60;;
11711;SDS011;5912;51.034;6.984;2024-03-23T14:36:15;1.55;;;0.95;;
11711;SDS011;5912;51.034;6.984;2024-03-23T14:38:41;2.65;;;1.13;;
11711;SDS011;5912;51.034;6.984;2024-03-23T14:41:07;2.65;;;1.10;;
11711;SDS011;5912;51.034;6.984;2024-03-23T14:43:33;3.08;;;1.20;;
11711;SDS011;5912;51.034;6.984;2024-03-23T14:46:11;2.63;;;1.23;;
11711;SDS011;5912;51.034;6.984;2024-03-23T14:48:41;1.35;;;0.82;;
11711;SDS011;5912;51.034;6.984;2024-03-23T14:51:07;5.03;;;1.00;;
11711;SDS011;5912;51.034;6.984;2024-03-23T14:53:34;2.13;;;1.20;;
11711;SDS011;5912;51.034;6.984;2024-03-23T14:56:01;3.28;;;1.00;;
11711;SDS011;5912;51.034;6.984;2024-03-23T14:58:27;2.28;;;0.68;;
11711;SDS011;5912;51.034;6.984;2024-03-23T15:00:53;1.77;;;0.70;;
11711;SDS011;5912;51.034;6.984;2024-03-23T15:03:24;1.50;;;0.80;;
11711;SDS011;5912;51.034;6.984;2024-03-23T15:05:56;1.85;;;0.70;;
11711;SDS011;5912;51.034;6.984;2024-03-23T15:08:22;2.40;;;0.70;;
11711;SDS011;5912;51.034;6.984;2024-03-23T15:10:47;1.83;;;0.80;;
11711;SDS011;5912;51.034;6.984;2024-03-23T15:13:13;1.73;;;0.60;;
11711;SDS011;5912;51.034;6.984;2024-03-23T15:15:40;1.20;;;0.70;;
11711;SDS011;5912;51.034;6.984;2024-03-23T15:18:08;1.17;;;0.80;;
11711;SDS011;5912;51.034;6.984;2024-03-23T15:20:34;1.23;;;0.93;;
11711;SDS011;5912;51.034;6.984;2024-03-23T15:23:01;1.45;;;0.93;;
11711;SDS011;5912;51.034;6.984;2024-03-23T15:25:27;1.95;;;0.82;;
11711;SDS011;5912;51.034;6.984;2024-03-23T15:27:53;1.73;;;0.70;;
11711;SDS011;5912;51.034;6.984;2024-03-23T15:30:19;1.08;;;0.60;;
11711;SDS011;5912;51.034;6.984;2024-03-23T15:32:45;1.25;;;0.80;;
11711;SDS011;5912;51.034;6.984;2024-03-23T15:35:10;2.53;;;0.88;;
11711;SDS011;5912;51.034;6.984;2024-03-23T15:37:35;1.50;;;1.10;;
11711;SDS011;5912;51.034;6.984;2024-03-23T15:40:01;1.65;;;1.00;;
11711;SDS011;5912;51.034;6.984;2024-03-23T15:42:26;2.33;;;0.85;;
11711;SDS011;5912;51.034;6.984;2024-03-23T15:44:51;2.83;;;0.90;;
11711;SDS011;5912;51.034;6.984;2024-03-23T15:47:17;2.25;;;1.10;;
11711;SDS011;5912;51.034;6.984;2024-03-23T15:49:42;3.33;;;1.00;;
11711;SDS011;5912;51.034;6.984;2024-03-23T15:52:08;3.00;;;1.02;;
11711;SDS011;5912;51.034;6.984;2024-03-23T15:54:33;1.88;;;0.82;;
11711;SDS011;5912;51.034;6.984;2024-03-23T15:56:58;1.80;;;1.00;;
11711;SDS011;5912;51.034;6.984;2024-03-23T15:59:24;3.25;;;1.00;;
11711;SDS011;5912;51.034;6.984;2024-03-23T16:01:49;4.38;;;0.85;;
11711;SDS011;5912;51.034;6.984;2024-03-23T16:04:14;2.47;;;0.70;;
11711;SDS011;5912;51.034;6.984;2024-03-23T16:06:40;1.35;;;0.80;;
11711;SDS011;5912;51.034;6.984;2024-03-23T16:09:06;1.88;;;0.80;;